Time;durP1;ratioP1;P1;durP2;ratioP2;P2;SDS_P1;SDS_P2;PMS_P1;PMS_P2;Temp;Humidity;BMP_temperature;BMP_pressure;BME280_temperature;BME280_humidity;BME280_pressure;Samples;Min_cycle;Max_cycle;Signal;HPM_P1;HPM_P2
2023/06/23 00:00:52;;;;;;;;;;;;;;;;;;5173040;27;2387;-57
2023/06/23 00:03:20;;;;;;;;;;;;;;;;;;5173085;27;2083;-57
2023/06/23 00:05:47;;;;;;;;;;;;;;;;;;5173006;27;2120;-57
2023/06/23 00:08:14;;;;;;;;;;;;;;;;;;5172484;27;2547;-53
2023/06/23 00:10:43;;;;;;;;;;;;;;;;;;5173468;27;2443;-47
2023/06/23 00:13:11;;;;;;;;;;;;;;;;;;5172812;27;2276;-56
2023/06/23 00:15:38;;;;;;;;;;;;;;;;;;5173228;27;2204;-57
2023/06/23 00:18:05;;;;;;;;;;;;;;;;;;5172974;27;2331;-52
2023/06/23 00:20:32;;;;;;;;;;;;;;;;;;5172696;27;2336;-58
2023/06/23 00:23:00;;;;;;;;;;;;;;;;;;5172145;27;2206;-58
2023/06/23 00:25:27;;;;;;;;;;;;;;;;;;5172733;27;2247;-58
2023/06/23 00:27:55;;;;;;;;;;;;;;;;;;5168747;27;2076;-57
2023/06/23 00:30:22;;;;;;;;;;;;;;;;;;5154207;27;2320;-58
2023/06/23 00:32:49;;;;;;;;;;;;;;;;;;5171158;27;2229;-53
2023/06/23 00:35:16;;;;;;;;;;;;;;;;;;5154065;27;2153;-58
2023/06/23 00:37:43;;;;;;;;;;;;;;;;;;5153939;27;2439;-51
2023/06/23 00:40:11;;;;;;;;;;;;;;;;;;5172877;27;2120;-53
2023/06/23 00:42:48;;;;;;;;;;;;;;;;;;5172695;27;2122;-55
2023/06/23 00:45:16;;;;;;;;;;;;;;;;;;5153864;27;2119;-51
2023/06/23 00:47:44;;;;;;;;;;;;;;;;;;5172895;27;1996;-53
2023/06/23 00:50:13;;;;;;;;;;;;;;;;;;5171727;27;2167;-57
2023/06/23 00:52:40;;;;;;;;;;;;;;;;;;5172506;27;2445;-58
2023/06/23 00:55:08;;;;;;;;;;;;;;;;;;5172297;27;2227;-56
2023/06/23 00:57:35;;;;;;;;;;;;;;;;;;5172671;27;1734;-55
2023/06/23 01:00:11;;;;;;;;;;;;;;;;;;5172417;27;1944;-55
2023/06/23 01:02:39;;;;;;;;;;;;;;;;;;5172328;27;1957;-56
2023/06/23 01:05:09;;;;;;;;;;;;;;;;;;5169921;27;1967;-55
2023/06/23 01:07:41;;;;;;;;;;;;;;;;;;5172195;27;2089;-54
2023/06/23 01:10:11;;;;;;;;;;;;;;;;;;5172474;27;1933;-57
2023/06/23 01:12:44;;;;;;;;;;;;;;;;;;5150281;27;2115;-58
2023/06/23 01:15:17;;;;;;;;;;;;;;;;;;5171176;27;1692;-54
2023/06/23 01:17:56;;;;;;;;;;;;;;;;;;5136661;27;2181;-57
2023/06/23 01:20:29;;;;;;;;;;;;;;;;;;5172217;27;2180;-57
2023/06/23 01:23:08;;;;;;;;;;;;;;;;;;5172086;27;2108;-52
2023/06/23 01:25:40;;;;;;;;;;;;;;;;;;5172144;27;2009;-57
2023/06/23 01:28:10;;;;;;;;;;;;;;;;;;5172247;27;2365;-57
2023/06/23 01:30:39;;;;;;;;;;;;;;;;;;5172165;27;2023;-58
2023/06/23 01:33:18;;;;;;;;;;;;;;;;;;5153049;27;2228;-46
2023/06/23 01:35:49;;;;;;;;;;;;;;;;;;5175595;27;2094;-56
2023/06/23 01:38:22;;;;;;;;;;;;;;;;;;5175836;27;2323;-58
2023/06/23 01:40:52;;;;;;;;;;;;;;;;;;5175693;27;2054;-53
2023/06/23 01:43:29;;;;;;;;;;;;;;;;;;5175756;27;2234;-49
2023/06/23 01:46:03;;;;;;;;;;;;;;;;;;5175548;27;2122;-53
2023/06/23 01:48:35;;;;;;;;;;;;;;;;;;5156938;27;2523;-55
2023/06/23 01:51:06;;;;;;;;;;;;;;;;;;5174256;27;2090;-58
2023/06/23 01:53:33;;;;;;;;;;;;;;;;;;5156510;27;2291;-59
2023/06/23 01:56:01;;;;;;;;;;;;;;;;;;5156946;27;2138;-53
2023/06/23 01:58:30;;;;;;;;;;;;;;;;;;5156795;27;2024;-55
2023/06/23 02:00:58;;;;;;;;;;;;;;;;;;5156506;27;2346;-51
2023/06/23 02:03:27;;;;;;;;;;;;;;;;;;5175431;27;2033;-54
2023/06/23 02:05:56;;;;;;;;;;;;;;;;;;5156500;27;2240;-54
2023/06/23 02:08:25;;;;;;;;;;;;;;;;;;5175210;27;2183;-58
2023/06/23 02:10:54;;;;;;;;;;;;;;;;;;5175134;27;2235;-57
2023/06/23 02:13:23;;;;;;;;;;;;;;;;;;5174990;27;2359;-57
2023/06/23 02:15:52;;;;;;;;;;;;;;;;;;5156453;27;2114;-58
2023/06/23 02:18:19;;;;;;;;;;;;;;;;;;5175353;27;2458;-57
2023/06/23 02:20:48;;;;;;;;;;;;;;;;;;5175149;27;2310;-55
2023/06/23 02:23:15;;;;;;;;;;;;;;;;;;5175002;27;2251;-50
2023/06/23 02:25:43;;;;;;;;;;;;;;;;;;5175101;27;2215;-55
2023/06/23 02:28:11;;;;;;;;;;;;;;;;;;5174927;27;2180;-58
2023/06/23 02:30:39;;;;;;;;;;;;;;;;;;5156247;27;2120;-57
2023/06/23 02:33:07;;;;;;;;;;;;;;;;;;5174692;27;2360;-58
2023/06/23 02:35:34;;;;;;;;;;;;;;;;;;5174077;27;2412;-57
2023/06/23 02:38:03;;;;;;;;;;;;;;;;;;5174544;27;1948;-59
2023/06/23 02:40:34;;;;;;;;;;;;;;;;;;5155961;27;2264;-56
2023/06/23 02:43:12;;;;;;;;;;;;;;;;;;5174473;27;2305;-55
2023/06/23 02:45:49;;;;;;;;;;;;;;;;;;5173673;27;2239;-53
2023/06/23 02:48:19;;;;;;;;;;;;;;;;;;5174495;27;2131;-58
2023/06/23 02:50:47;;;;;;;;;;;;;;;;;;5155652;27;2354;-59
2023/06/23 02:53:18;;;;;;;;;;;;;;;;;;5173956;27;2141;-55
2023/06/23 02:55:47;;;;;;;;;;;;;;;;;;5155569;27;2508;-57
2023/06/23 02:58:15;;;;;;;;;;;;;;;;;;5174532;27;2130;-57
2023/06/23 03:00:43;;;;;;;;;;;;;;;;;;5174250;27;2121;-54
2023/06/23 03:03:14;;;;;;;;;;;;;;;;;;5174137;27;2370;-58
2023/06/23 03:05:43;;;;;;;;;;;;;;;;;;5174153;27;2273;-58
2023/06/23 03:08:10;;;;;;;;;;;;;;;;;;5174032;27;1898;-58
2023/06/23 03:10:42;;;;;;;;;;;;;;;;;;5174088;27;1754;-58
2023/06/23 03:13:10;;;;;;;;;;;;;;;;;;5152123;27;2337;-54
2023/06/23 03:15:38;;;;;;;;;;;;;;;;;;5174039;27;2056;-58
2023/06/23 03:18:16;;;;;;;;;;;;;;;;;;5173901;27;1959;-58
2023/06/23 03:20:49;;;;;;;;;;;;;;;;;;5173776;27;1930;-52
2023/06/23 03:23:18;;;;;;;;;;;;;;;;;;5169869;27;2282;-54
2023/06/23 03:25:46;;;;;;;;;;;;;;;;;;5153960;27;1948;-56
2023/06/23 03:28:17;;;;;;;;;;;;;;;;;;5155025;27;1751;-58
2023/06/23 03:30:46;;;;;;;;;;;;;;;;;;5173791;27;1884;-54
2023/06/23 03:33:21;;;;;;;;;;;;;;;;;;5154543;27;1945;-55
2023/06/23 03:35:49;;;;;;;;;;;;;;;;;;5173434;27;1962;-57
2023/06/23 03:38:19;;;;;;;;;;;;;;;;;;5154589;27;2045;-58
2023/06/23 03:41:13;;;;;;;;;;;;;;;;;;5173396;27;2248;-55
2023/06/23 03:43:49;;;;;;;;;;;;;;;;;;5169554;27;1965;-58
2023/06/23 03:46:23;;;;;;;;;;;;;;;;;;5173358;27;2142;-56
2023/06/23 03:48:54;;;;;;;;;;;;;;;;;;5173491;27;1967;-52
2023/06/23 03:51:24;;;;;;;;;;;;;;;;;;5173412;27;2081;-59
2023/06/23 03:53:52;;;;;;;;;;;;;;;;;;5173279;27;1992;-48
2023/06/23 03:56:20;;;;;;;;;;;;;;;;;;5172926;27;2357;-58
2023/06/23 03:58:49;;;;;;;;;;;;;;;;;;5171966;27;1906;-58
2023/06/23 04:01:17;;;;;;;;;;;;;;;;;;5154031;27;1740;-58
2023/06/23 04:03:45;;;;;;;;;;;;;;;;;;5173063;27;1826;-55
2023/06/23 04:06:13;;;;;;;;;;;;;;;;;;5171580;27;1925;-49
2023/06/23 04:08:41;;;;;;;;;;;;;;;;;;5172965;27;1921;-56
2023/06/23 04:11:09;;;;;;;;;;;;;;;;;;5173010;27;1896;-50
2023/06/23 04:13:37;;;;;;;;;;;;;;;;;;5172496;27;1933;-56
2023/06/23 04:16:05;;;;;;;;;;;;;;;;;;5172887;27;2213;-57
2023/06/23 04:18:33;;;;;;;;;;;;;;;;;;5172713;27;1844;-58
2023/06/23 04:21:02;;;;;;;;;;;;;;;;;;5164630;27;2259;-54
2023/06/23 04:23:31;;;;;;;;;;;;;;;;;;5172883;27;2108;-48
2023/06/23 04:25:58;;;;;;;;;;;;;;;;;;5168623;27;1799;-51
2023/06/23 04:28:28;;;;;;;;;;;;;;;;;;5168901;27;2000;-56
2023/06/23 04:30:55;;;;;;;;;;;;;;;;;;5172748;27;2137;-58
2023/06/23 04:33:23;;;;;;;;;;;;;;;;;;5170039;27;1918;-55
2023/06/23 04:35:53;;;;;;;;;;;;;;;;;;5172584;27;1921;-59
2023/06/23 04:38:22;;;;;;;;;;;;;;;;;;5172458;27;2064;-56
2023/06/23 04:40:54;;;;;;;;;;;;;;;;;;5172740;27;1789;-58
2023/06/23 04:43:26;;;;;;;;;;;;;;;;;;5172436;27;2138;-52
2023/06/23 04:45:57;;;;;;;;;;;;;;;;;;5169188;27;1825;-56
2023/06/23 04:48:26;;;;;;;;;;;;;;;;;;5172754;27;2059;-58
2023/06/23 04:50:55;;;;;;;;;;;;;;;;;;5172878;27;1994;-58
2023/06/23 04:53:25;;;;;;;;;;;;;;;;;;5171879;27;2386;-58
2023/06/23 04:55:58;;;;;;;;;;;;;;;;;;5172501;27;2188;-58
2023/06/23 04:58:28;;;;;;;;;;;;;;;;;;5172394;27;2163;-58
2023/06/23 05:00:56;;;;;;;;;;;;;;;;;;5169251;27;2116;-58
2023/06/23 05:03:24;;;;;;;;;;;;;;;;;;5172306;27;2024;-58
2023/06/23 05:05:53;;;;;;;;;;;;;;;;;;5165454;27;2621;-59
2023/06/23 05:08:23;;;;;;;;;;;;;;;;;;5169811;27;2127;-58
2023/06/23 05:10:51;;;;;;;;;;;;;;;;;;5157436;27;2166;-58
2023/06/23 05:13:19;;;;;;;;;;;;;;;;;;5172110;27;2131;-57
2023/06/23 05:15:48;;;;;;;;;;;;;;;;;;5176253;27;2273;-56
2023/06/23 05:18:17;;;;;;;;;;;;;;;;;;5175949;27;2633;-56
2023/06/23 05:20:45;;;;;;;;;;;;;;;;;;5176406;27;2126;-48
2023/06/23 05:23:13;;;;;;;;;;;;;;;;;;5175928;27;2359;-56
2023/06/23 05:25:43;;;;;;;;;;;;;;;;;;5176168;27;2080;-56
2023/06/23 05:28:11;;;;;;;;;;;;;;;;;;5176074;27;2333;-56
2023/06/23 05:30:40;;;;;;;;;;;;;;;;;;5175916;27;2032;-56
2023/06/23 05:33:09;;;;;;;;;;;;;;;;;;5176108;27;2103;-59
2023/06/23 05:35:37;;;;;;;;;;;;;;;;;;5175740;27;2352;-56
2023/06/23 05:38:04;;;;;;;;;;;;;;;;;;5176011;27;2188;-55
2023/06/23 05:40:32;;;;;;;;;;;;;;;;;;5174392;27;2422;-58
2023/06/23 05:42:59;;;;;;;;;;;;;;;;;;5176303;27;2172;-52
2023/06/23 05:45:27;;;;;;;;;;;;;;;;;;5175459;27;2161;-48
2023/06/23 05:48:20;;;;;;;;;;;;;;;;;;5175727;27;2276;-49
2023/06/23 05:50:48;;;;;;;;;;;;;;;;;;5171466;27;2243;-47
2023/06/23 05:53:17;;;;;;;;;;;;;;;;;;5175551;27;2164;-52
2023/06/23 05:56:06;;;;;;;;;;;;;;;;;;5175150;27;2205;-47
2023/06/23 05:58:39;;;;;;;;;;;;;;;;;;5175663;27;1970;-57
2023/06/23 06:01:12;;;;;;;;;;;;;;;;;;5175500;27;2155;-52
2023/06/23 06:03:41;;;;;;;;;;;;;;;;;;5175500;27;2198;-56
2023/06/23 06:06:10;;;;;;;;;;;;;;;;;;5174407;27;2334;-53
2023/06/23 06:08:43;;;;;;;;;;;;;;;;;;5173123;27;2092;-57
2023/06/23 06:11:16;;;;;;;;;;;;;;;;;;5174989;27;1804;-54
2023/06/23 06:13:47;;;;;;;;;;;;;;;;;;5175102;27;1990;-58
2023/06/23 06:16:15;;;;;;;;;;;;;;;;;;5175059;27;1906;-55
2023/06/23 06:18:45;;;;;;;;;;;;;;;;;;5175177;27;1980;-53
2023/06/23 06:21:17;;;;;;;;;;;;;;;;;;5173969;27;2133;-50
2023/06/23 06:23:48;;;;;;;;;;;;;;;;;;5175269;27;1862;-53
2023/06/23 06:26:17;;;;;;;;;;;;;;;;;;5174990;27;2029;-51
2023/06/23 06:28:46;;;;;;;;;;;;;;;;;;5174838;27;2079;-54
2023/06/23 06:31:13;;;;;;;;;;;;;;;;;;5174694;27;1980;-56
2023/06/23 06:33:41;;;;;;;;;;;;;;;;;;5174832;27;2029;-57
2023/06/23 06:36:09;;;;;;;;;;;;;;;;;;5171914;27;2353;-53
2023/06/23 06:38:37;;;;;;;;;;;;;;;;;;5174731;27;2067;-48
2023/06/23 06:41:05;;;;;;;;;;;;;;;;;;5174834;27;2461;-56
2023/06/23 06:43:33;;;;;;;;;;;;;;;;;;5174746;27;2127;-57
2023/06/23 06:46:01;;;;;;;;;;;;;;;;;;5174426;27;2111;-54
2023/06/23 06:48:29;;;;;;;;;;;;;;;;;;5174460;27;2298;-55
2023/06/23 06:50:58;;;;;;;;;;;;;;;;;;5174477;27;2217;-52
2023/06/23 06:53:26;;;;;;;;;;;;;;;;;;5170949;27;2338;-48
2023/06/23 06:55:53;;;;;;;;;;;;;;;;;;5174243;27;2228;-54
2023/06/23 06:58:21;;;;;;;;;;;;;;;;;;5174161;27;2194;-55
2023/06/23 07:00:49;;;;;;;;;;;;;;;;;;5174253;27;1972;-58
2023/06/23 07:03:17;;;;;;;;;;;;;;;;;;5174205;27;2095;-52
2023/06/23 07:05:44;;;;;;;;;;;;;;;;;;5155629;27;2330;-55
2023/06/23 07:08:11;;;;;;;;;;;;;;;;;;5173353;27;2148;-57
2023/06/23 07:10:38;;;;;;;;;;;;;;;;;;5174049;27;2465;-56
2023/06/23 07:13:06;;;;;;;;;;;;;;;;;;5168304;27;2044;-52
2023/06/23 07:15:33;;;;;;;;;;;;;;;;;;5174154;27;2044;-41
2023/06/23 07:18:00;;;;;;;;;;;;;;;;;;5173647;27;2207;-52
2023/06/23 07:20:28;;;;;;;;;;;;;;;;;;5173758;27;2103;-55
2023/06/23 07:22:56;;;;;;;;;;;;;;;;;;5173928;27;2294;-59
2023/06/23 07:25:23;;;;;;;;;;;;;;;;;;5173534;27;1944;-54
2023/06/23 07:27:50;;;;;;;;;;;;;;;;;;5173902;27;2125;-59
2023/06/23 07:30:17;;;;;;;;;;;;;;;;;;5173412;27;2380;-52
2023/06/23 07:32:45;;;;;;;;;;;;;;;;;;5173307;27;2151;-52
2023/06/23 07:35:13;;;;;;;;;;;;;;;;;;5173485;27;2294;-55
2023/06/23 07:37:40;;;;;;;;;;;;;;;;;;5173545;27;2152;-55
2023/06/23 07:40:08;;;;;;;;;;;;;;;;;;5173538;27;2281;-55
2023/06/23 07:42:35;;;;;;;;;;;;;;;;;;5172427;27;2063;-55
2023/06/23 07:45:02;;;;;;;;;;;;;;;;;;5173317;27;2298;-52
2023/06/23 07:47:29;;;;;;;;;;;;;;;;;;5173228;27;1904;-54
2023/06/23 07:49:57;;;;;;;;;;;;;;;;;;5173272;27;1850;-55
2023/06/23 07:52:24;;;;;;;;;;;;;;;;;;5173272;27;1913;-54
2023/06/23 07:54:51;;;;;;;;;;;;;;;;;;5154390;27;2437;-47
2023/06/23 07:57:21;;;;;;;;;;;;;;;;;;5173003;27;1952;-55
2023/06/23 07:59:48;;;;;;;;;;;;;;;;;;5173314;27;2070;-57
2023/06/23 08:02:16;;;;;;;;;;;;;;;;;;5172725;27;2347;-57
2023/06/23 08:04:43;;;;;;;;;;;;;;;;;;5168790;27;2154;-57
2023/06/23 08:07:10;;;;;;;;;;;;;;;;;;5168423;27;2032;-57
2023/06/23 08:09:38;;;;;;;;;;;;;;;;;;5170918;27;2213;-53
2023/06/23 08:12:05;;;;;;;;;;;;;;;;;;5168062;27;2009;-54
2023/06/23 08:14:32;;;;;;;;;;;;;;;;;;5172716;27;1958;-53
2023/06/23 08:17:02;;;;;;;;;;;;;;;;;;5167140;27;1951;-54
2023/06/23 08:19:30;;;;;;;;;;;;;;;;;;5170338;27;2117;-47
2023/06/23 08:21:57;;;;;;;;;;;;;;;;;;5171335;27;1867;-45
2023/06/23 08:24:24;;;;;;;;;;;;;;;;;;5172806;27;1976;-48
2023/06/23 08:26:51;;;;;;;;;;;;;;;;;;5172551;27;1948;-51
2023/06/23 08:29:19;;;;;;;;;;;;;;;;;;5154340;27;1760;-55
2023/06/23 08:31:46;;;;;;;;;;;;;;;;;;5167298;27;2042;-52
2023/06/23 08:34:14;;;;;;;;;;;;;;;;;;5150015;27;2116;-52
2023/06/23 08:36:41;;;;;;;;;;;;;;;;;;5153997;27;1909;-58
2023/06/23 08:39:08;;;;;;;;;;;;;;;;;;5166721;27;2232;-56
2023/06/23 08:41:39;;;;;;;;;;;;;;;;;;5167329;27;1970;-56
2023/06/23 08:44:06;;;;;;;;;;;;;;;;;;5173366;27;2013;-54
2023/06/23 08:46:35;;;;;;;;;;;;;;;;;;5176542;27;2295;-52
2023/06/23 08:49:17;;;;;;;;;;;;;;;;;;5176905;27;2378;-51
2023/06/23 08:51:44;;;;;;;;;;;;;;;;;;5176795;27;2105;-47
2023/06/23 08:54:13;;;;;;;;;;;;;;;;;;5176960;27;2219;-57
2023/06/23 08:56:42;;;;;;;;;;;;;;;;;;5175156;27;2273;-53
2023/06/23 08:59:10;;;;;;;;;;;;;;;;;;5176676;27;2440;-50
2023/06/23 09:01:37;;;;;;;;;;;;;;;;;;5176613;27;2015;-50
2023/06/23 09:04:05;;;;;;;;;;;;;;;;;;5176375;27;2222;-59
2023/06/23 09:06:35;;;;;;;;;;;;;;;;;;5176334;27;2117;-56
2023/06/23 09:09:02;;;;;;;;;;;;;;;;;;5176460;27;1864;-57
2023/06/23 09:11:30;;;;;;;;;;;;;;;;;;5176159;27;1728;-58
2023/06/23 09:13:58;;;;;;;;;;;;;;;;;;5172177;27;1708;-52
2023/06/23 09:16:26;;;;;;;;;;;;;;;;;;5173262;27;2314;-49
2023/06/23 09:18:54;;;;;;;;;;;;;;;;;;5176267;27;2136;-57
2023/06/23 09:21:22;;;;;;;;;;;;;;;;;;5176313;27;2005;-55
2023/06/23 09:24:05;;;;;;;;;;;;;;;;;;5175823;27;2673;-54
2023/06/23 09:26:49;;;;;;;;;;;;;;;;;;5170292;27;2082;-53
2023/06/23 09:29:20;;;;;;;;;;;;;;;;;;5176249;27;2225;-58
2023/06/23 09:31:48;;;;;;;;;;;;;;;;;;5173064;27;2385;-51
2023/06/23 09:34:20;;;;;;;;;;;;;;;;;;5172179;27;2135;-56
2023/06/23 09:36:47;;;;;;;;;;;;;;;;;;5175404;27;2271;-46
2023/06/23 09:39:15;;;;;;;;;;;;;;;;;;5172037;27;2239;-58
2023/06/23 09:41:47;;;;;;;;;;;;;;;;;;5175907;27;2210;-52
2023/06/23 09:44:18;;;;;;;;;;;;;;;;;;5173623;27;2233;-56
2023/06/23 09:46:46;;;;;;;;;;;;;;;;;;5175902;27;1988;-58
2023/06/23 09:49:13;;;;;;;;;;;;;;;;;;5175661;27;2222;-57
2023/06/23 09:51:46;;;;;;;;;;;;;;;;;;5175799;27;2014;-55
2023/06/23 09:54:14;;;;;;;;;;;;;;;;;;5175512;27;2263;-53
2023/06/23 09:56:41;;;;;;;;;;;;;;;;;;5175193;27;2143;-57
2023/06/23 09:59:08;;;;;;;;;;;;;;;;;;5176165;27;2009;-57
2023/06/23 10:01:37;;;;;;;;;;;;;;;;;;5175198;27;2029;-57
2023/06/23 10:04:05;;;;;;;;;;;;;;;;;;5175518;27;1874;-48
2023/06/23 10:06:36;;;;;;;;;;;;;;;;;;5175024;27;1865;-55
2023/06/23 10:09:09;;;;;;;;;;;;;;;;;;5175623;27;2344;-57
2023/06/23 10:11:37;;;;;;;;;;;;;;;;;;5175353;27;1812;-53
2023/06/23 10:14:10;;;;;;;;;;;;;;;;;;5175055;27;2286;-57
2023/06/23 10:16:41;;;;;;;;;;;;;;;;;;5171960;27;2035;-58
2023/06/23 10:19:08;;;;;;;;;;;;;;;;;;5174159;27;2230;-53
2023/06/23 10:21:35;;;;;;;;;;;;;;;;;;5169907;27;2011;-56
2023/06/23 10:24:05;;;;;;;;;;;;;;;;;;5173230;27;1980;-55
2023/06/23 10:26:34;;;;;;;;;;;;;;;;;;5174613;27;2497;-56
2023/06/23 10:29:12;;;;;;;;;;;;;;;;;;5174881;27;2108;-55
2023/06/23 10:31:40;;;;;;;;;;;;;;;;;;5172117;27;2239;-54
2023/06/23 10:34:10;;;;;;;;;;;;;;;;;;5174923;27;2133;-56
2023/06/23 10:36:39;;;;;;;;;;;;;;;;;;5174546;27;2142;-55
2023/06/23 10:39:08;;;;;;;;;;;;;;;;;;5174596;27;2077;-57
2023/06/23 10:41:36;;;;;;;;;;;;;;;;;;5174720;27;2063;-56
2023/06/23 10:44:04;;;;;;;;;;;;;;;;;;5174652;27;1954;-55
2023/06/23 10:46:32;;;;;;;;;;;;;;;;;;5174400;27;2110;-56
2023/06/23 10:48:59;;;;;;;;;;;;;;;;;;5171826;27;1992;-58
2023/06/23 10:51:26;;;;;;;;;;;;;;;;;;5174136;27;2074;-54
2023/06/23 10:53:58;;;;;;;;;;;;;;;;;;5174076;27;2243;-53
2023/06/23 10:56:29;;;;;;;;;;;;;;;;;;5173816;27;1992;-52
2023/06/23 10:58:57;;;;;;;;;;;;;;;;;;5174319;27;2285;-58
2023/06/23 11:01:26;;;;;;;;;;;;;;;;;;5174108;27;2067;-55
2023/06/23 11:03:56;;;;;;;;;;;;;;;;;;5174155;27;2094;-54
2023/06/23 11:06:28;;;;;;;;;;;;;;;;;;5153248;27;2572;-43
2023/06/23 11:08:57;;;;;;;;;;;;;;;;;;5173674;27;2219;-55
2023/06/23 11:11:31;;;;;;;;;;;;;;;;;;5174082;27;2183;-48
2023/06/23 11:13:59;;;;;;;;;;;;;;;;;;5173792;27;2171;-52
2023/06/23 11:16:38;;;;;;;;;;;;;;;;;;5173964;27;2220;-55
2023/06/23 11:19:05;;;;;;;;;;;;;;;;;;5173955;27;1976;-54
2023/06/23 11:21:39;;;;;;;;;;;;;;;;;;5174109;27;2094;-56
2023/06/23 11:24:06;;;;;;;;;;;;;;;;;;5173834;27;2072;-51
2023/06/23 11:26:33;;;;;;;;;;;;;;;;;;5173948;27;1784;-56
2023/06/23 11:29:00;;;;;;;;;;;;;;;;;;5173683;27;2297;-56
2023/06/23 11:31:28;;;;;;;;;;;;;;;;;;5173798;27;2222;-55
2023/06/23 11:34:02;;;;;;;;;;;;;;;;;;5172615;27;2250;-55
2023/06/23 11:36:31;;;;;;;;;;;;;;;;;;5173436;27;2128;-57
2023/06/23 11:39:00;;;;;;;;;;;;;;;;;;5172908;27;2230;-57
2023/06/23 11:41:28;;;;;;;;;;;;;;;;;;5173343;27;2004;-52
2023/06/23 11:43:59;;;;;;;;;;;;;;;;;;5173591;27;2255;-57
2023/06/23 11:46:26;;;;;;;;;;;;;;;;;;5173431;27;2167;-49
2023/06/23 11:48:54;;;;;;;;;;;;;;;;;;5173672;27;2124;-56
2023/06/23 11:51:21;;;;;;;;;;;;;;;;;;5173314;27;2329;-55
2023/06/23 11:53:51;;;;;;;;;;;;;;;;;;5173030;27;2288;-57
2023/06/23 11:56:19;;;;;;;;;;;;;;;;;;5172941;27;2350;-44
2023/06/23 11:58:48;;;;;;;;;;;;;;;;;;5168604;27;2155;-57
2023/06/23 12:01:17;;;;;;;;;;;;;;;;;;5169347;27;2147;-57
2023/06/23 12:03:46;;;;;;;;;;;;;;;;;;5167619;27;2205;-57
2023/06/23 12:06:15;;;;;;;;;;;;;;;;;;5171587;27;2364;-59
2023/06/23 12:08:44;;;;;;;;;;;;;;;;;;5170571;27;2259;-58
2023/06/23 12:11:13;;;;;;;;;;;;;;;;;;5172783;27;2141;-52
2023/06/23 12:13:40;;;;;;;;;;;;;;;;;;5173198;27;2366;-54
2023/06/23 12:16:08;;;;;;;;;;;;;;;;;;5170123;27;2081;-57
2023/06/23 12:18:45;;;;;;;;;;;;;;;;;;5172299;27;2146;-58
2023/06/23 12:21:16;;;;;;;;;;;;;;;;;;5172362;27;2453;-55
2023/06/23 12:23:44;;;;;;;;;;;;;;;;;;5171165;27;2112;-48
2023/06/23 12:26:12;;;;;;;;;;;;;;;;;;5172695;27;2517;-58
2023/06/23 12:28:40;;;;;;;;;;;;;;;;;;5172631;27;2108;-56
2023/06/23 12:31:07;;;;;;;;;;;;;;;;;;5172642;27;2401;-53
2023/06/23 12:33:38;;;;;;;;;;;;;;;;;;5172437;27;1959;-52
2023/06/23 12:36:07;;;;;;;;;;;;;;;;;;5172688;27;2226;-56
2023/06/23 12:38:35;;;;;;;;;;;;;;;;;;5166746;27;2113;-59
2023/06/23 12:41:18;;;;;;;;;;;;;;;;;;5167393;27;2161;-55
2023/06/23 12:43:49;;;;;;;;;;;;;;;;;;5172506;27;2125;-56
2023/06/23 12:46:16;;;;;;;;;;;;;;;;;;5172606;27;2279;-56
2023/06/23 12:48:45;;;;;;;;;;;;;;;;;;5168273;27;2318;-56
2023/06/23 12:51:12;;;;;;;;;;;;;;;;;;5171794;27;2180;-52
2023/06/23 12:53:39;;;;;;;;;;;;;;;;;;5172029;27;2271;-49
2023/06/23 12:56:07;;;;;;;;;;;;;;;;;;5172523;27;2015;-57
2023/06/23 12:58:34;;;;;;;;;;;;;;;;;;5172718;27;2437;-57
2023/06/23 13:01:04;;;;;;;;;;;;;;;;;;5172084;27;2390;-59
2023/06/23 13:03:31;;;;;;;;;;;;;;;;;;5171984;27;2145;-57
2023/06/23 13:05:59;;;;;;;;;;;;;;;;;;5172436;27;2314;-55
2023/06/23 13:08:26;;;;;;;;;;;;;;;;;;5172302;27;2280;-50
2023/06/23 13:10:54;;;;;;;;;;;;;;;;;;5172314;27;2340;-57
2023/06/23 13:13:21;;;;;;;;;;;;;;;;;;5165282;27;2266;-56
2023/06/23 13:15:48;;;;;;;;;;;;;;;;;;5172235;27;2298;-58
2023/06/23 13:18:15;;;;;;;;;;;;;;;;;;5171913;27;2393;-54
2023/06/23 13:20:42;;;;;;;;;;;;;;;;;;5172154;27;2119;-58
2023/06/23 13:23:10;;;;;;;;;;;;;;;;;;5172194;27;2160;-56
2023/06/23 13:25:37;;;;;;;;;;;;;;;;;;5171939;27;2164;-56
2023/06/23 13:28:04;;;;;;;;;;;;;;;;;;5168403;27;2265;-56
2023/06/23 13:30:31;;;;;;;;;;;;;;;;;;5172314;27;2425;-54
2023/06/23 13:32:58;;;;;;;;;;;;;;;;;;5176351;27;2129;-56
2023/06/23 13:35:26;;;;;;;;;;;;;;;;;;5176020;27;2310;-53
2023/06/23 13:37:57;;;;;;;;;;;;;;;;;;5175631;27;2161;-58
2023/06/23 13:40:26;;;;;;;;;;;;;;;;;;5175817;27;2241;-54
2023/06/23 13:42:53;;;;;;;;;;;;;;;;;;5175319;27;2195;-53
2023/06/23 13:45:20;;;;;;;;;;;;;;;;;;5175942;27;2126;-55
2023/06/23 13:47:47;;;;;;;;;;;;;;;;;;5175650;27;2275;-56
2023/06/23 13:50:15;;;;;;;;;;;;;;;;;;5175728;27;2226;-58
2023/06/23 13:52:43;;;;;;;;;;;;;;;;;;5175656;27;2249;-58
2023/06/23 13:55:11;;;;;;;;;;;;;;;;;;5175206;27;2215;-56
2023/06/23 13:57:38;;;;;;;;;;;;;;;;;;5170121;27;2346;-51
2023/06/23 14:00:10;;;;;;;;;;;;;;;;;;5175398;27;2445;-44
2023/06/23 14:02:38;;;;;;;;;;;;;;;;;;5174563;27;2460;-45
2023/06/23 14:05:05;;;;;;;;;;;;;;;;;;5175358;27;2261;-46
2023/06/23 14:07:35;;;;;;;;;;;;;;;;;;5175388;27;1916;-45
2023/06/23 14:10:03;;;;;;;;;;;;;;;;;;5175941;27;2591;-46
2023/06/23 14:12:32;;;;;;;;;;;;;;;;;;5175186;27;2573;-46
2023/06/23 14:15:00;;;;;;;;;;;;;;;;;;5175576;27;2445;-49
2023/06/23 14:17:27;;;;;;;;;;;;;;;;;;5173968;27;2258;-44
2023/06/23 14:19:54;;;;;;;;;;;;;;;;;;5174714;27;2183;-44
2023/06/23 14:22:24;;;;;;;;;;;;;;;;;;5175320;27;2287;-56
2023/06/23 14:24:51;;;;;;;;;;;;;;;;;;5174900;27;2220;-46
2023/06/23 14:27:18;;;;;;;;;;;;;;;;;;5175034;27;2286;-45
2023/06/23 14:29:46;;;;;;;;;;;;;;;;;;5174773;27;1870;-45
2023/06/23 14:32:13;;;;;;;;;;;;;;;;;;5175096;27;2195;-47
2023/06/23 14:34:41;;;;;;;;;;;;;;;;;;5164765;27;2065;-46
2023/06/23 14:37:08;;;;;;;;;;;;;;;;;;5174821;27;1909;-44
2023/06/23 14:39:35;;;;;;;;;;;;;;;;;;5175010;27;2421;-46
2023/06/23 14:42:03;;;;;;;;;;;;;;;;;;5173774;27;2196;-46
2023/06/23 14:44:31;;;;;;;;;;;;;;;;;;5174525;27;2035;-45
2023/06/23 14:46:58;;;;;;;;;;;;;;;;;;5174613;27;1890;-45
2023/06/23 14:49:25;;;;;;;;;;;;;;;;;;5174363;27;1679;-44
2023/06/23 14:51:52;;;;;;;;;;;;;;;;;;5171225;27;2071;-46
2023/06/23 14:54:20;;;;;;;;;;;;;;;;;;5174409;27;1984;-44
2023/06/23 14:56:48;;;;;;;;;;;;;;;;;;5174500;27;2341;-46
2023/06/23 14:59:16;;;;;;;;;;;;;;;;;;5174299;27;2020;-50
2023/06/23 15:01:44;;;;;;;;;;;;;;;;;;5174358;27;2051;-45
2023/06/23 15:04:11;;;;;;;;;;;;;;;;;;5173910;27;2552;-45
2023/06/23 15:06:39;;;;;;;;;;;;;;;;;;5174198;27;2272;-46
2023/06/23 15:09:06;;;;;;;;;;;;;;;;;;5174404;27;2524;-46
2023/06/23 15:11:33;;;;;;;;;;;;;;;;;;5174292;27;2310;-46
2023/06/23 15:14:00;;;;;;;;;;;;;;;;;;5173168;27;2182;-44
2023/06/23 15:16:28;;;;;;;;;;;;;;;;;;5173722;27;2326;-44
2023/06/23 15:18:55;;;;;;;;;;;;;;;;;;5173948;27;2016;-46
2023/06/23 15:21:22;;;;;;;;;;;;;;;;;;5173801;27;2436;-44
2023/06/23 15:23:49;;;;;;;;;;;;;;;;;;5173708;27;1965;-45
2023/06/23 15:26:17;;;;;;;;;;;;;;;;;;5173852;27;2131;-45
2023/06/23 15:28:44;;;;;;;;;;;;;;;;;;5173568;27;2450;-44
2023/06/23 15:31:14;;;;;;;;;;;;;;;;;;5173730;27;2077;-45
2023/06/23 15:33:41;;;;;;;;;;;;;;;;;;5173670;27;2262;-45
2023/06/23 15:36:08;;;;;;;;;;;;;;;;;;5173672;27;2173;-46
2023/06/23 15:38:37;;;;;;;;;;;;;;;;;;5173588;27;2104;-49
2023/06/23 15:41:05;;;;;;;;;;;;;;;;;;5173335;27;1968;-42
2023/06/23 15:43:32;;;;;;;;;;;;;;;;;;5154112;27;2003;-46
2023/06/23 15:46:00;;;;;;;;;;;;;;;;;;5173604;27;2510;-45
2023/06/23 15:48:27;;;;;;;;;;;;;;;;;;5173338;27;2170;-46
2023/06/23 15:50:55;;;;;;;;;;;;;;;;;;5173441;27;2454;-51
2023/06/23 15:53:23;;;;;;;;;;;;;;;;;;5172775;27;2156;-43
2023/06/23 15:55:50;;;;;;;;;;;;;;;;;;5173465;27;2033;-46
2023/06/23 15:58:17;;;;;;;;;;;;;;;;;;5172915;27;2309;-45
2023/06/23 16:00:44;;;;;;;;;;;;;;;;;;5173062;27;1981;-44
2023/06/23 16:03:11;;;;;;;;;;;;;;;;;;5173211;27;2309;-47
2023/06/23 16:05:39;;;;;;;;;;;;;;;;;;5173011;27;1945;-49
2023/06/23 16:08:07;;;;;;;;;;;;;;;;;;5173408;27;2217;-48
2023/06/23 16:10:34;;;;;;;;;;;;;;;;;;5172870;27;2104;-50
2023/06/23 16:13:02;;;;;;;;;;;;;;;;;;5173018;27;2202;-44
2023/06/23 16:15:29;;;;;;;;;;;;;;;;;;5172930;27;2405;-44
2023/06/23 16:17:57;;;;;;;;;;;;;;;;;;5172738;27;2088;-43
2023/06/23 16:20:27;;;;;;;;;;;;;;;;;;5172685;27;2026;-42
2023/06/23 16:22:54;;;;;;;;;;;;;;;;;;5172775;27;2376;-44
2023/06/23 16:25:21;;;;;;;;;;;;;;;;;;5154277;27;2293;-52
2023/06/23 16:27:48;;;;;;;;;;;;;;;;;;5172771;27;2405;-44
2023/06/23 16:30:16;;;;;;;;;;;;;;;;;;5172661;27;2032;-45
2023/06/23 16:32:43;;;;;;;;;;;;;;;;;;5172824;27;2282;-46
2023/06/23 16:35:10;;;;;;;;;;;;;;;;;;5172927;27;2129;-43
2023/06/23 16:37:37;;;;;;;;;;;;;;;;;;5172299;27;2030;-44
2023/06/23 16:40:05;;;;;;;;;;;;;;;;;;5168164;27;1980;-58
2023/06/23 16:42:34;;;;;;;;;;;;;;;;;;5172148;27;2269;-44
2023/06/23 16:45:03;;;;;;;;;;;;;;;;;;5172498;27;2470;-44
2023/06/23 16:47:30;;;;;;;;;;;;;;;;;;5170226;27;2323;-45
2023/06/23 16:49:58;;;;;;;;;;;;;;;;;;5172653;27;2224;-44
2023/06/23 16:52:25;;;;;;;;;;;;;;;;;;5172361;27;2040;-43
2023/06/23 16:54:52;;;;;;;;;;;;;;;;;;5172274;27;2218;-49
2023/06/23 16:57:19;;;;;;;;;;;;;;;;;;5172317;27;2310;-46
2023/06/23 16:59:46;;;;;;;;;;;;;;;;;;5172162;27;2029;-44
2023/06/23 17:02:14;;;;;;;;;;;;;;;;;;5172519;27;2197;-42
2023/06/23 17:04:41;;;;;;;;;;;;;;;;;;5172307;27;2025;-43
2023/06/23 17:07:09;;;;;;;;;;;;;;;;;;5174583;27;1978;-43
2023/06/23 17:09:37;;;;;;;;;;;;;;;;;;5176482;27;2259;-43
2023/06/23 17:12:04;;;;;;;;;;;;;;;;;;5176362;27;1977;-50
2023/06/23 17:14:43;;;;;;;;;;;;;;;;;;5159947;27;2260;-43